Dumont, Iowa
Current Conditions -  °F | °C
As of 10:55 AM on Friday 24 Oct 2014 (Local Time) from KIFA Reporting Station
Drizzle Drizzle  
Wind Chill: 57°   Ceiling: 200
Heat Index: 57°   Visibility: 0.25mi
Dew Point: 57°   Wind: 15mph
Humidity: 97%   Direction: 160°SSE
Pressure: 29.95"   Gusts: NA
Location:  42.75°N, 92.98°W
Report Text: KIFA 241555Z AUTO 16013KT 1/4SM -DZ OVC002 14/14 A2995 RMK AO2 T01410137
Loading
Personal Weather Stations






























Interactive Weather Map
Tropical Storm Tracking
New forecast layout! Learn more

10-Day Weather Forecast

Advertisements
Track Severe Weather on mobile